• Join FlightAware (Why Join?)
  • Login
  • US Flag 
03:22AM EST


 

Airport Tracker/Info


-or-


 

Live Flight TrackerFlight Track Log ✈ AAL2007 ✈ 02-May-2013 ✈ KORD - KAUS

Flight Track Log - Related Links

Times and Time Zones

All times are in EDT time to prevent confusion due to time zone crossing. See the AAL2007 flight status page for this flight to view local times or setup timezone preferences in your user account.

Time Position Orientation Groundspeed Altitude Reporting Facility
EDT Latitude Longitude Course Direction KTS MPH feet Rate Location/Type
07:20PM 41.9667 -87.8500 194° South 196 226 2,500  Level Chicago TRACON
07:21PM 41.9000 -87.8000 151° Southeast 244 281 4,700 1,140 Climbing Chicago TRACON
07:22PM 41.7221 -88.1666 201° Southwest  Level Estimated
07:22PM 41.8333 -87.7833 169° South 249 287 5,000  Level Chicago TRACON
07:23PM 41.6354 -88.2527 197° South  Level Estimated
07:24PM 41.5345 -88.2014 159° South  Level FlightAware Approximate
07:24PM 41.7239 -87.8406 201° Southwest 274 315 8,900  Level Chicago Center
07:25PM 41.4483 -88.2880 207° Southwest  Level Estimated
07:25PM 41.6658 -87.9056 220° Southwest 274 315 11,500  Level Chicago Center
07:26PM 41.3631 -88.3732 194° South  Level Estimated
07:26PM 41.5986 -87.9728 217° Southwest 298 343 12,700  Level Chicago Center
07:27PM 41.5244 -88.0519 219° Southwest 340 391 14,700 2,160 Climbing Chicago Center
07:28PM 41.4325 -88.1472 218° Southwest 363 418 17,200 2,160 Climbing Chicago Center
07:29PM 41.3417 -88.2094 207° Southwest 381 438 19,200 1,740 Climbing Chicago Center
07:30PM 41.2461 -88.2522 199° South 367 422 20,800 1,500 Climbing Chicago Center
07:31PM 41.1272 -88.3058 199° South 378 435 22,400 1,320 Climbing Chicago Center
07:33PM 41.0267 -88.3519 199° South 383 441 23,600 1,140 Climbing Chicago Center
07:34PM 40.9244 -88.3964 198° South 387 445 24,800 1,140 Climbing Chicago Center
07:35PM 40.8217 -88.4428 199° South 392 451 26,000 960 Climbing Chicago Center
07:36PM 40.7172 -88.4900 199° South 396 456 26,900 840 Climbing Chicago Center
07:37PM 40.6286 -88.5725 215° Southwest 394 453 27,800 960 Climbing Chicago Center
07:38PM 40.5264 -88.6886 221° Southwest 403 464 28,900 840 Climbing Chicago Center
07:39PM 40.4464 -88.7761 220° Southwest 408 470 29,600 780 Climbing Chicago Center
07:40PM 40.3583 -88.8731 220° Southwest 408 470 30,600 900 Climbing Chicago Center
07:41PM 40.2719 -88.9683 220° Southwest 409 471 31,500 660 Climbing Chicago Center
07:42PM 40.1847 -89.0650 220° Southwest 409 471 32,000 240 Climbing Chicago Center
07:43PM 40.1136 -89.1411 219° Southwest 405 466 32,000  Level Kansas City Center
07:44PM 40.0272 -89.2353 220° Southwest 405 466 32,000  Level Kansas City Center
07:45PM 39.9236 -89.3483 220° Southwest 404 465 32,000  Level Kansas City Center
07:46PM 39.8361 -89.4417 219° Southwest 405 466 32,000  Level Kansas City Center
07:47PM 39.7492 -89.5375 220° Southwest 406 467 32,000  Level Kansas City Center
07:48PM 39.6722 -89.6208 220° Southwest 402 463 32,000  Level Kansas City Center
07:49PM 39.5683 -89.7331 220° Southwest 405 466 32,000  Level Kansas City Center
07:50PM 39.4808 -89.8256 219° Southwest 407 468 32,000  Level Kansas City Center
07:51PM 39.3933 -89.9186 219° Southwest 409 471 32,000  Level Kansas City Center
07:52PM 39.3050 -90.0119 219° Southwest 410 472 32,000  Level Kansas City Center
07:53PM 39.2192 -90.1056 220° Southwest 407 468 32,000  Level Kansas City Center
07:54PM 39.1328 -90.1964 219° Southwest 404 465 32,000  Level Kansas City Center
07:55PM 39.0453 -90.2897 220° Southwest 408 470 32,000  Level Kansas City Center
07:56PM 38.9417 -90.3989 219° Southwest 407 468 32,000  Level Kansas City Center
07:57PM 38.8653 -90.4803 220° Southwest 401 461 32,000  Level Kansas City Center
07:58PM 38.7622 -90.5961 221° Southwest 405 466 32,000  Level Kansas City Center
07:59PM 38.6783 -90.6911 221° Southwest 401 461 32,000  Level Kansas City Center
08:00PM 38.5922 -90.7925 223° Southwest 405 466 32,000  Level Kansas City Center
08:01PM 38.5094 -90.8867 222° Southwest 401 461 32,000  Level Kansas City Center
08:02PM 38.4256 -90.9847 222° Southwest 407 468 32,000  Level Kansas City Center
08:03PM 38.3431 -91.0786 222° Southwest 404 465 32,000  Level Kansas City Center
08:04PM 38.2597 -91.1736 222° Southwest 403 464 32,000  Level Kansas City Center
08:05PM 38.1764 -91.2675 222° Southwest 402 463 32,000  Level Kansas City Center
08:06PM 38.0900 -91.3619 221° Southwest 403 464 32,000  Level Kansas City Center
08:07PM 37.9900 -91.4767 222° Southwest 402 463 32,000  Level Kansas City Center
08:08PM 37.9064 -91.5714 222° Southwest 402 463 32,000  Level Kansas City Center
08:09PM 37.8211 -91.6658 221° Southwest 402 463 32,000  Level Kansas City Center
08:10PM 37.7378 -91.7592 222° Southwest 398 458 32,000  Level Kansas City Center
08:11PM 37.6525 -91.8539 221° Southwest 402 463 32,000  Level Kansas City Center
08:12PM 37.5683 -91.9481 222° Southwest 401 461 32,000  Level Kansas City Center
08:13PM 37.4842 -92.0417 221° Southwest 400 460 32,000  Level Kansas City Center
08:14PM 37.3992 -92.1361 221° Southwest 401 461 32,000  Level Kansas City Center
08:16PM 37.3147 -92.2289 221° Southwest 401 461 32,000 240 Level Kansas City Center
08:17PM 37.2292 -92.3228 221° Southwest 404 465 32,500 720 Climbing Kansas City Center
08:18PM 37.1456 -92.4147 221° Southwest 399 459 33,600 720 Climbing Kansas City Center
08:19PM 37.0461 -92.5208 220° Southwest 390 449 34,000 180 Climbing Kansas City Center
08:20PM 36.9628 -92.6111 221° Southwest 392 451 34,000  Level Kansas City Center
08:21PM 36.8781 -92.7014 220° Southwest 396 456 34,000  Level Kansas City Center
08:21PM 36.8106 -92.7800 223° Southwest 398 458 34,000  Level Memphis Center
08:22PM 36.7294 -92.8681 221° Southwest 398 458 34,000  Level Memphis Center
08:23PM 36.6444 -92.9508 218° Southwest 398 458 34,000  Level Memphis Center
08:24PM 36.5533 -93.0281 214° Southwest 398 458 34,000  Level Memphis Center
08:25PM 36.4642 -93.1050 215° Southwest 398 458 34,000  Level Memphis Center
08:26PM 36.3811 -93.1769 215° Southwest 398 458 34,000  Level Memphis Center
08:27PM 36.2919 -93.2536 215° Southwest 403 464 34,000  Level Memphis Center
08:28PM 36.2025 -93.3303 215° Southwest 403 464 34,000  Level Memphis Center
08:29PM 36.1131 -93.4067 215° Southwest 403 464 34,000  Level Memphis Center
08:30PM 36.0128 -93.4953 216° Southwest 403 464 34,000  Level Memphis Center
08:31PM 35.9214 -93.5686 213° Southwest 409 471 34,000  Level Memphis Center
08:32PM 35.8317 -93.6472 215° Southwest 404 465 34,000  Level Memphis Center
08:33PM 35.7400 -93.7228 214° Southwest 404 465 34,000  Level Memphis Center
08:34PM 35.6483 -93.8008 215° Southwest 404 465 34,000  Level Memphis Center
08:35PM 35.5564 -93.8786 215° Southwest 404 465 34,000  Level Memphis Center
08:36PM 35.4686 -93.9567 216° Southwest 404 465 34,000  Level Memphis Center
08:37PM 35.3747 -94.0314 213° Southwest 404 465 34,000  Level Memphis Center
08:38PM 35.2828 -94.1089 215° Southwest 404 465 34,000  Level Memphis Center
08:41PM 35.0978 -94.2644 215° Southwest 403 464 34,000  Level Fort Worth Center
08:42PM 35.0078 -94.3414 215° Southwest 395 455 34,000  Level Fort Worth Center
08:43PM 34.9158 -94.4156 213° Southwest 388 447 34,000  Level Fort Worth Center
08:44PM 34.8236 -94.4922 214° Southwest 388 447 34,000  Level Fort Worth Center
08:45PM 34.7336 -94.5683 215° Southwest 388 447 34,000  Level Fort Worth Center
08:46PM 34.6414 -94.6447 214° Southwest 388 447 34,000  Level Fort Worth Center
08:47PM 34.5492 -94.7183 213° Southwest 388 447 34,000  Level Fort Worth Center
08:48PM 34.4569 -94.7942 214° Southwest 398 458 34,000  Level Fort Worth Center
08:49PM 34.3686 -94.8672 214° Southwest 398 458 34,000  Level Fort Worth Center
08:50PM 34.2764 -94.9431 214° Southwest 398 458 34,000  Level Fort Worth Center
08:51PM 34.1858 -95.0133 213° Southwest 393 452 34,000  Level Fort Worth Center
08:52PM 34.0933 -95.0886 214° Southwest 393 452 34,000  Level Fort Worth Center
08:53PM 34.0008 -95.1636 214° Southwest 393 452 34,000  Level Fort Worth Center
08:54PM 33.9083 -95.2361 213° Southwest 398 458 34,000  Level Fort Worth Center
08:55PM 33.8197 -95.3083 214° Southwest 398 458 34,000  Level Fort Worth Center
08:56PM 33.7250 -95.3856 214° Southwest 398 458 34,000  Level Fort Worth Center
08:57PM 33.6342 -95.4550 212° Southwest 398 458 34,000  Level Fort Worth Center
08:58PM 33.5436 -95.5269 214° Southwest 398 458 34,000  Level Fort Worth Center
08:59PM 33.4447 -95.6086 215° Southwest 398 458 34,000  Level Fort Worth Center
09:00PM 33.3600 -95.6750 213° Southwest 398 458 34,000  Level Fort Worth Center
09:01PM 33.2608 -95.7539 214° Southwest 398 458 34,000  Level Fort Worth Center
09:02PM 33.1781 -95.8175 213° Southwest 398 458 34,000  Level Fort Worth Center
09:03PM 33.0769 -95.8986 214° Southwest 398 458 34,000  Level Fort Worth Center
09:04PM 32.9919 -95.9619 212° Southwest 398 458 34,000  Level Fort Worth Center
09:05PM 32.8906 -96.0428 214° Southwest 398 458 34,000  Level Fort Worth Center
09:06PM 32.7975 -96.1133 213° Southwest 398 458 34,000  Level Fort Worth Center
09:07PM 32.7064 -96.1864 214° Southwest 398 458 34,000  Level Fort Worth Center
09:08PM 32.6131 -96.2567 212° Southwest 398 458 34,000  Level Fort Worth Center
09:09PM 32.5303 -96.3217 214° Southwest 398 458 34,000  Level Fort Worth Center
09:10PM 32.4286 -96.3994 213° Southwest 398 458 34,000  Level Fort Worth Center
09:11PM 32.3433 -96.4642 213° Southwest 398 458 34,000 -300 Level Fort Worth Center
09:12PM 32.2586 -96.5608 224° Southwest 398 458 33,500 -840 Descending Fort Worth Center
09:13PM 32.1922 -96.6622 232° Southwest 393 452 32,400 -1,260 Descending Fort Worth Center
09:14PM 32.1239 -96.7706 233° Southwest 410 472 31,000 -1,500 Descending Fort Worth Center
09:15PM 32.0597 -96.8764 234° Southwest 410 472 29,500 -1,500 Descending Fort Worth Center
09:16PM 31.9892 -96.9822 232° Southwest 416 479 28,000 -1,500 Descending Fort Worth Center
09:17PM 31.9039 -97.0708 221° Southwest 416 479 26,500 -1,560 Descending Fort Worth Center
09:17PM 31.8056 -97.0875 188° South 435 501 25,200 -1,500 Descending Houston Center
09:18PM 31.6875 -97.1106 189° South 429 494 23,700 -1,260 Descending Houston Center
09:19PM 31.5817 -97.1344 191° South 389 448 22,700 -1,020 Descending Houston Center
09:20PM 31.4758 -97.1542 189° South 382 440 21,700 -1,020 Descending Houston Center
09:22PM 31.3711 -97.1744 189° South 377 434 20,700 -900 Descending Houston Center
09:23PM 31.2686 -97.1961 190° South 373 429 19,900 -1,260 Descending Houston Center
09:24PM 31.1664 -97.2231 193° South 372 428 18,200 -1,680 Descending Houston Center
09:25PM 31.0731 -97.2625 200° South 357 411 16,500 -1,920 Descending Houston Center
09:26PM 30.9669 -97.3044 199° South 350 403 14,300 -1,620 Descending Houston Center
09:27PM 30.8761 -97.3383 198° South 352 405 13,200 -1,020 Descending Houston Center
09:28PM 30.7881 -97.3725 198° South 337 388 12,300 -900 Descending Houston Center
09:29PM 30.7042 -97.4042 198° South 319 367 11,400 -1,260 Descending Houston Center
09:30PM 30.6281 -97.4344 199° South 296 341 9,800 -1,620 Descending Houston Center
09:31PM 30.5514 -97.4633 198° South 287 330 8,200 -1,560 Descending Houston Center
09:32PM 30.4767 -97.4919 198° South 283 326 6,700 -1,080 Descending Houston Center
09:33PM 30.4047 -97.5197 198° South 273 314 6,000 -360 Descending Houston Center
09:34PM 30.3419 -97.5389 195° South 240 276 6,000  Level Houston Center
09:35PM 30.2739 -97.5453 185° South 210 242 6,000  Level Houston Center
09:36PM 30.2181 -97.5525 186° South 202 232 6,000 -600 Level Houston Center
09:37PM 30.1589 -97.5578 184° South 207 238 4,900 -1,020 Descending Houston Center
09:38PM 30.0944 -97.5644 185° South 227 261 4,000 -480 Descending Houston Center
09:39PM 30.0281 -97.5719 186° South 230 265 4,000 -360 Level Houston Center
09:40PM 29.9994 -97.6217 236° Southwest 193 222 3,300 -720 Descending Houston Center
09:41PM 30.0200 -97.6511 309° West 147 169 2,600 -720 Descending Houston Center